TimeCDT,TemperatureF,Dew PointF,Humidity,Sea Level PressureIn,VisibilityMPH,Wind Direction,Wind SpeedMPH,Gust SpeedMPH,PrecipitationIn,Events,Conditions,WindDirDegrees,DateUTC
12:15 AM,35.6,21.2,56,30.20,10.0,NNW,6.9,-,N/A,,Clear,330,2013-03-25 05:15:00
12:35 AM,35.6,21.2,56,30.20,10.0,NNW,11.5,16.1,N/A,,Clear,330,2013-03-25 05:35:00
12:55 AM,33.8,21.2,60,30.21,10.0,NNW,10.4,-,N/A,,Clear,330,2013-03-25 05:55:00
1:15 AM,33.8,23.0,65,30.21,10.0,NNW,5.8,-,N/A,,Clear,330,2013-03-25 06:15:00
1:35 AM,33.8,23.0,65,30.22,10.0,NNW,10.4,-,N/A,,Clear,340,2013-03-25 06:35:00
1:55 AM,33.8,23.0,65,30.22,10.0,NNW,9.2,-,N/A,,Clear,340,2013-03-25 06:55:00
2:15 AM,32.0,23.0,69,30.24,10.0,North,6.9,-,N/A,,Clear,350,2013-03-25 07:15:00
2:35 AM,32.0,21.2,64,30.25,10.0,NNW,3.5,-,N/A,,Clear,330,2013-03-25 07:35:00
2:55 AM,32.0,21.2,64,30.25,10.0,NW,4.6,-,N/A,,Clear,320,2013-03-25 07:55:00
3:15 AM,32.0,21.2,64,30.25,10.0,NW,8.1,-,N/A,,Clear,320,2013-03-25 08:15:00
3:35 AM,32.0,23.0,69,30.25,10.0,NW,6.9,-,N/A,,Clear,310,2013-03-25 08:35:00
4:15 AM,32.0,21.2,64,30.24,10.0,NW,6.9,-,N/A,,Clear,310,2013-03-25 09:15:00
4:35 AM,32.0,21.2,64,30.23,10.0,NW,5.8,-,N/A,,Clear,310,2013-03-25 09:35:00
4:55 AM,32.0,23.0,69,30.23,10.0,WNW,5.8,-,N/A,,Clear,300,2013-03-25 09:55:00
5:15 AM,32.0,23.0,69,30.23,10.0,West,4.6,-,N/A,,Clear,270,2013-03-25 10:15:00
5:35 AM,30.2,23.0,75,30.24,10.0,WNW,5.8,-,N/A,,Clear,290,2013-03-25 10:35:00
5:55 AM,30.2,23.0,75,30.25,10.0,West,3.5,-,N/A,,Clear,280,2013-03-25 10:55:00
6:15 AM,30.2,23.0,75,30.25,10.0,West,4.6,-,N/A,,Clear,280,2013-03-25 11:15:00
6:35 AM,30.2,23.0,75,30.25,10.0,West,6.9,-,N/A,,Clear,280,2013-03-25 11:35:00
7:15 AM,30.2,23.0,75,30.28,10.0,WNW,8.1,-,N/A,,Clear,300,2013-03-25 12:15:00
7:35 AM,32.0,23.0,69,30.28,10.0,WNW,9.2,-,N/A,,Clear,300,2013-03-25 12:35:00
8:15 AM,32.0,23.0,69,30.30,10.0,NW,10.4,-,N/A,,Clear,320,2013-03-25 13:15:00
8:35 AM,33.8,23.0,65,30.32,10.0,NW,10.4,-,N/A,,Clear,310,2013-03-25 13:35:00
8:55 AM,35.6,24.8,65,30.32,10.0,NNW,15.0,-,N/A,,Clear,330,2013-03-25 13:55:00
9:15 AM,35.6,23.0,60,30.33,10.0,NNW,13.8,17.3,N/A,,Clear,330,2013-03-25 14:15:00
9:55 AM,37.4,23.0,56,30.34,10.0,NNW,17.3,23.0,N/A,,Clear,330,2013-03-25 14:55:00
10:15 AM,39.2,21.2,49,30.35,10.0,NW,16.1,26.5,N/A,,Clear,320,2013-03-25 15:15:00
10:35 AM,41.0,19.4,42,30.36,10.0,NNW,18.4,24.2,N/A,,Clear,330,2013-03-25 15:35:00
10:55 AM,42.8,19.4,39,30.36,10.0,NW,12.7,21.9,N/A,,Clear,310,2013-03-25 15:55:00
11:15 AM,42.8,17.6,36,30.37,10.0,NNW,18.4,27.6,N/A,,Clear,340,2013-03-25 16:15:00
11:35 AM,42.8,17.6,36,30.37,10.0,NNW,17.3,24.2,N/A,,Clear,340,2013-03-25 16:35:00
11:55 AM,42.8,17.6,36,30.36,10.0,NW,16.1,20.7,N/A,,Clear,320,2013-03-25 16:55:00
12:15 PM,44.6,15.8,31,30.36,10.0,NNW,16.1,24.2,N/A,,Clear,330,2013-03-25 17:15:00
12:35 PM,44.6,15.8,31,30.36,10.0,NW,18.4,26.5,N/A,,Clear,320,2013-03-25 17:35:00
12:55 PM,46.4,17.6,32,30.35,10.0,NNW,16.1,23.0,N/A,,Clear,340,2013-03-25 17:55:00
1:15 PM,46.4,15.8,29,30.34,10.0,NNW,17.3,21.9,N/A,,Clear,330,2013-03-25 18:15:00
1:35 PM,46.4,15.8,29,30.34,10.0,NW,18.4,26.5,N/A,,Clear,320,2013-03-25 18:35:00
1:55 PM,48.2,15.8,27,30.33,10.0,NNW,18.4,24.2,N/A,,Clear,330,2013-03-25 18:55:00
2:15 PM,46.4,14.0,27,30.32,10.0,NW,17.3,25.3,N/A,,Clear,310,2013-03-25 19:15:00
2:35 PM,48.2,15.8,27,30.32,10.0,NW,18.4,27.6,N/A,,Clear,320,2013-03-25 19:35:00
2:55 PM,50.0,15.8,26,30.31,10.0,NNW,17.3,27.6,N/A,,Clear,330,2013-03-25 19:55:00
3:15 PM,50.0,14.0,24,30.30,10.0,NW,16.1,27.6,N/A,,Clear,320,2013-03-25 20:15:00
3:35 PM,50.0,14.0,24,30.30,10.0,NW,16.1,25.3,N/A,,Clear,310,2013-03-25 20:35:00
3:55 PM,50.0,14.0,24,30.29,10.0,NW,17.3,25.3,N/A,,Clear,310,2013-03-25 20:55:00
4:15 PM,50.0,14.0,24,30.29,10.0,NNW,15.0,25.3,N/A,,Clear,330,2013-03-25 21:15:00
4:35 PM,50.0,14.0,24,30.29,10.0,NNW,15.0,24.2,N/A,,Clear,330,2013-03-25 21:35:00
4:55 PM,50.0,14.0,24,30.29,10.0,NW,13.8,20.7,N/A,,Clear,320,2013-03-25 21:55:00
5:15 PM,50.0,14.0,24,30.29,10.0,NW,17.3,23.0,N/A,,Clear,320,2013-03-25 22:15:00
5:35 PM,50.0,14.0,24,30.29,10.0,NW,19.6,24.2,N/A,,Clear,320,2013-03-25 22:35:00
6:15 PM,48.2,14.0,25,30.29,10.0,NW,17.3,23.0,N/A,,Clear,320,2013-03-25 23:15:00
6:55 PM,46.4,14.0,27,30.30,10.0,NNW,15.0,24.2,N/A,,Clear,330,2013-03-25 23:55:00
7:15 PM,46.4,14.0,27,30.32,10.0,NW,15.0,21.9,N/A,,Clear,320,2013-03-26 00:15:00
7:35 PM,44.6,14.0,29,30.32,10.0,NW,15.0,18.4,N/A,,Clear,320,2013-03-26 00:35:00
7:55 PM,42.8,14.0,31,30.33,10.0,NNW,13.8,17.3,N/A,,Clear,330,2013-03-26 00:55:00
8:15 PM,42.8,15.8,34,30.34,10.0,NW,12.7,-,N/A,,Clear,320,2013-03-26 01:15:00
8:35 PM,41.0,15.8,36,30.35,10.0,NNW,10.4,21.9,N/A,,Clear,330,2013-03-26 01:35:00
8:55 PM,41.0,17.6,39,30.36,10.0,NNW,6.9,-,N/A,,Clear,330,2013-03-26 01:55:00
9:15 PM,41.0,17.6,39,30.37,10.0,NNW,9.2,-,N/A,,Clear,330,2013-03-26 02:15:00
9:35 PM,41.0,15.8,36,30.38,10.0,NNW,9.2,-,N/A,,Clear,330,2013-03-26 02:35:00
9:55 PM,39.2,17.6,42,30.38,10.0,NNW,6.9,-,N/A,,Clear,330,2013-03-26 02:55:00
10:15 PM,37.4,17.6,45,30.39,10.0,NNW,8.1,-,N/A,,Clear,340,2013-03-26 03:15:00
10:35 PM,35.6,17.6,48,30.39,10.0,NNW,4.6,-,N/A,,Clear,340,2013-03-26 03:35:00
10:55 PM,35.6,19.4,52,30.40,10.0,NNW,4.6,-,N/A,,Clear,340,2013-03-26 03:55:00
11:15 PM,35.6,17.6,48,30.40,10.0,NNW,3.5,-,N/A,,Clear,340,2013-03-26 04:15:00
11:35 PM,35.6,17.6,48,30.40,10.0,North,3.5,-,N/A,,Clear,350,2013-03-26 04:35:00
11:55 PM,33.8,19.4,56,30.40,10.0,North,3.5,-,N/A,,Clear,360,2013-03-26 04:55:00